sensor_id;sensor_type;location;lat;lon;timestamp;P1;durP1;ratioP1;P2;durP2;ratioP2
5333;SDS011;2689;50.954;7.116;2022-11-20T00:00:08;16.60;;;11.70;;
5333;SDS011;2689;50.954;7.116;2022-11-20T00:02:42;15.77;;;12.47;;
5333;SDS011;2689;50.954;7.116;2022-11-20T00:05:09;14.80;;;11.80;;
5333;SDS011;2689;50.954;7.116;2022-11-20T00:07:39;13.67;;;10.90;;
5333;SDS011;2689;50.954;7.116;2022-11-20T00:10:06;14.60;;;11.50;;
5333;SDS011;2689;50.954;7.116;2022-11-20T00:12:36;15.60;;;11.17;;
5333;SDS011;2689;50.954;7.116;2022-11-20T00:15:03;16.63;;;11.07;;
5333;SDS011;2689;50.954;7.116;2022-11-20T00:17:46;14.30;;;12.13;;
5333;SDS011;2689;50.954;7.116;2022-11-20T00:20:13;12.03;;;10.20;;
5333;SDS011;2689;50.954;7.116;2022-11-20T00:22:41;13.37;;;10.77;;
5333;SDS011;2689;50.954;7.116;2022-11-20T00:25:08;13.23;;;10.87;;
5333;SDS011;2689;50.954;7.116;2022-11-20T00:27:35;14.90;;;10.53;;
5333;SDS011;2689;50.954;7.116;2022-11-20T00:30:02;14.50;;;11.10;;
5333;SDS011;2689;50.954;7.116;2022-11-20T00:32:29;14.63;;;10.50;;
5333;SDS011;2689;50.954;7.116;2022-11-20T00:35:00;13.43;;;10.03;;
5333;SDS011;2689;50.954;7.116;2022-11-20T00:37:42;15.33;;;10.90;;
5333;SDS011;2689;50.954;7.116;2022-11-20T00:40:09;15.07;;;10.70;;
5333;SDS011;2689;50.954;7.116;2022-11-20T00:42:37;12.07;;;9.40;;
5333;SDS011;2689;50.954;7.116;2022-11-20T00:45:07;13.63;;;10.43;;
5333;SDS011;2689;50.954;7.116;2022-11-20T00:47:34;13.27;;;10.00;;
5333;SDS011;2689;50.954;7.116;2022-11-20T00:50:05;12.37;;;9.30;;
5333;SDS011;2689;50.954;7.116;2022-11-20T00:52:32;15.90;;;9.60;;
5333;SDS011;2689;50.954;7.116;2022-11-20T00:55:05;13.07;;;9.03;;
5333;SDS011;2689;50.954;7.116;2022-11-20T00:57:33;12.97;;;10.97;;
5333;SDS011;2689;50.954;7.116;2022-11-20T01:00:00;13.50;;;10.27;;
5333;SDS011;2689;50.954;7.116;2022-11-20T01:02:26;13.10;;;9.53;;
5333;SDS011;2689;50.954;7.116;2022-11-20T01:04:53;14.10;;;11.23;;
5333;SDS011;2689;50.954;7.116;2022-11-20T01:07:22;11.10;;;9.13;;
5333;SDS011;2689;50.954;7.116;2022-11-20T01:09:49;16.33;;;9.73;;
5333;SDS011;2689;50.954;7.116;2022-11-20T01:12:16;12.20;;;10.23;;
5333;SDS011;2689;50.954;7.116;2022-11-20T01:14:46;14.60;;;10.27;;
5333;SDS011;2689;50.954;7.116;2022-11-20T01:17:13;14.03;;;10.60;;
5333;SDS011;2689;50.954;7.116;2022-11-20T01:19:40;12.60;;;9.70;;
5333;SDS011;2689;50.954;7.116;2022-11-20T01:22:07;12.97;;;9.90;;
5333;SDS011;2689;50.954;7.116;2022-11-20T01:24:36;14.53;;;11.50;;
5333;SDS011;2689;50.954;7.116;2022-11-20T01:27:06;11.33;;;9.57;;
5333;SDS011;2689;50.954;7.116;2022-11-20T01:29:32;13.33;;;9.63;;
5333;SDS011;2689;50.954;7.116;2022-11-20T01:31:59;13.37;;;10.37;;
5333;SDS011;2689;50.954;7.116;2022-11-20T01:34:26;14.27;;;10.10;;
5333;SDS011;2689;50.954;7.116;2022-11-20T01:36:57;13.87;;;9.97;;
5333;SDS011;2689;50.954;7.116;2022-11-20T01:39:26;12.87;;;10.43;;
5333;SDS011;2689;50.954;7.116;2022-11-20T01:41:55;12.47;;;10.17;;
5333;SDS011;2689;50.954;7.116;2022-11-20T01:44:43;14.13;;;9.57;;
5333;SDS011;2689;50.954;7.116;2022-11-20T01:47:25;12.63;;;9.30;;
5333;SDS011;2689;50.954;7.116;2022-11-20T01:49:56;14.40;;;9.43;;
5333;SDS011;2689;50.954;7.116;2022-11-20T01:52:28;14.83;;;10.60;;
5333;SDS011;2689;50.954;7.116;2022-11-20T01:55:02;12.23;;;9.03;;
5333;SDS011;2689;50.954;7.116;2022-11-20T02:00:18;14.03;;;10.10;;
5333;SDS011;2689;50.954;7.116;2022-11-20T02:02:47;13.30;;;10.80;;
5333;SDS011;2689;50.954;7.116;2022-11-20T02:05:20;12.80;;;10.37;;
5333;SDS011;2689;50.954;7.116;2022-11-20T02:07:50;13.10;;;9.60;;
5333;SDS011;2689;50.954;7.116;2022-11-20T02:10:33;11.33;;;10.00;;
5333;SDS011;2689;50.954;7.116;2022-11-20T02:13:01;14.47;;;9.73;;
5333;SDS011;2689;50.954;7.116;2022-11-20T02:15:46;13.63;;;10.90;;
5333;SDS011;2689;50.954;7.116;2022-11-20T02:18:14;13.30;;;10.17;;
5333;SDS011;2689;50.954;7.116;2022-11-20T02:20:44;12.67;;;9.97;;
5333;SDS011;2689;50.954;7.116;2022-11-20T02:23:14;13.00;;;9.83;;
5333;SDS011;2689;50.954;7.116;2022-11-20T02:25:48;13.37;;;11.50;;
5333;SDS011;2689;50.954;7.116;2022-11-20T02:28:17;12.53;;;10.07;;
5333;SDS011;2689;50.954;7.116;2022-11-20T02:30:45;16.03;;;11.13;;
5333;SDS011;2689;50.954;7.116;2022-11-20T02:33:12;13.00;;;10.07;;
5333;SDS011;2689;50.954;7.116;2022-11-20T02:35:40;13.33;;;9.70;;
5333;SDS011;2689;50.954;7.116;2022-11-20T02:38:09;12.00;;;9.60;;
5333;SDS011;2689;50.954;7.116;2022-11-20T02:40:36;13.80;;;11.40;;
5333;SDS011;2689;50.954;7.116;2022-11-20T02:43:04;16.83;;;9.80;;
5333;SDS011;2689;50.954;7.116;2022-11-20T02:45:31;14.30;;;9.90;;
5333;SDS011;2689;50.954;7.116;2022-11-20T02:47:58;12.50;;;9.70;;
5333;SDS011;2689;50.954;7.116;2022-11-20T02:50:25;12.17;;;9.27;;
5333;SDS011;2689;50.954;7.116;2022-11-20T02:52:54;14.57;;;10.30;;
5333;SDS011;2689;50.954;7.116;2022-11-20T02:55:21;14.40;;;10.37;;
5333;SDS011;2689;50.954;7.116;2022-11-20T02:57:48;13.17;;;10.13;;
5333;SDS011;2689;50.954;7.116;2022-11-20T03:00:16;11.43;;;9.13;;
5333;SDS011;2689;50.954;7.116;2022-11-20T03:02:43;13.30;;;9.80;;
5333;SDS011;2689;50.954;7.116;2022-11-20T03:05:10;12.80;;;9.63;;
5333;SDS011;2689;50.954;7.116;2022-11-20T03:07:37;12.83;;;9.77;;
5333;SDS011;2689;50.954;7.116;2022-11-20T03:10:04;11.57;;;8.90;;
5333;SDS011;2689;50.954;7.116;2022-11-20T03:12:32;13.30;;;10.27;;
5333;SDS011;2689;50.954;7.116;2022-11-20T03:15:04;14.60;;;10.30;;
5333;SDS011;2689;50.954;7.116;2022-11-20T03:17:33;12.17;;;9.67;;
5333;SDS011;2689;50.954;7.116;2022-11-20T03:20:00;12.60;;;9.77;;
5333;SDS011;2689;50.954;7.116;2022-11-20T03:22:28;13.60;;;10.93;;
5333;SDS011;2689;50.954;7.116;2022-11-20T03:24:55;13.33;;;9.60;;
5333;SDS011;2689;50.954;7.116;2022-11-20T03:27:22;14.30;;;10.20;;
5333;SDS011;2689;50.954;7.116;2022-11-20T03:29:49;13.27;;;9.53;;
5333;SDS011;2689;50.954;7.116;2022-11-20T03:32:17;15.03;;;10.50;;
5333;SDS011;2689;50.954;7.116;2022-11-20T03:34:47;13.40;;;10.27;;
5333;SDS011;2689;50.954;7.116;2022-11-20T03:37:14;14.43;;;10.80;;
5333;SDS011;2689;50.954;7.116;2022-11-20T03:39:40;14.30;;;10.50;;
5333;SDS011;2689;50.954;7.116;2022-11-20T03:42:08;14.70;;;11.37;;
5333;SDS011;2689;50.954;7.116;2022-11-20T03:44:55;14.67;;;11.20;;
5333;SDS011;2689;50.954;7.116;2022-11-20T03:47:22;14.60;;;10.17;;
5333;SDS011;2689;50.954;7.116;2022-11-20T03:49:51;12.10;;;9.17;;
5333;SDS011;2689;50.954;7.116;2022-11-20T03:52:17;13.23;;;10.13;;
5333;SDS011;2689;50.954;7.116;2022-11-20T03:54:44;15.80;;;11.07;;
5333;SDS011;2689;50.954;7.116;2022-11-20T03:57:13;13.10;;;10.10;;
5333;SDS011;2689;50.954;7.116;2022-11-20T03:59:43;13.80;;;10.33;;
5333;SDS011;2689;50.954;7.116;2022-11-20T04:02:10;15.27;;;12.03;;
5333;SDS011;2689;50.954;7.116;2022-11-20T04:04:36;16.87;;;12.07;;
5333;SDS011;2689;50.954;7.116;2022-11-20T04:07:07;14.43;;;11.17;;
5333;SDS011;2689;50.954;7.116;2022-11-20T04:09:34;14.57;;;10.30;;
5333;SDS011;2689;50.954;7.116;2022-11-20T04:12:01;15.40;;;11.40;;
5333;SDS011;2689;50.954;7.116;2022-11-20T04:14:30;14.80;;;10.73;;
5333;SDS011;2689;50.954;7.116;2022-11-20T04:16:57;14.00;;;11.13;;
5333;SDS011;2689;50.954;7.116;2022-11-20T04:19:24;14.57;;;11.03;;
5333;SDS011;2689;50.954;7.116;2022-11-20T04:21:51;15.20;;;11.57;;
5333;SDS011;2689;50.954;7.116;2022-11-20T04:24:19;14.67;;;11.10;;
5333;SDS011;2689;50.954;7.116;2022-11-20T04:26:46;14.13;;;10.63;;
5333;SDS011;2689;50.954;7.116;2022-11-20T04:29:13;14.90;;;10.57;;
5333;SDS011;2689;50.954;7.116;2022-11-20T04:31:40;13.97;;;11.00;;
5333;SDS011;2689;50.954;7.116;2022-11-20T04:34:07;14.80;;;10.77;;
5333;SDS011;2689;50.954;7.116;2022-11-20T04:36:37;15.60;;;11.63;;
5333;SDS011;2689;50.954;7.116;2022-11-20T04:39:05;16.03;;;11.00;;
5333;SDS011;2689;50.954;7.116;2022-11-20T04:41:34;14.73;;;11.67;;
5333;SDS011;2689;50.954;7.116;2022-11-20T04:44:03;14.57;;;10.53;;
5333;SDS011;2689;50.954;7.116;2022-11-20T04:46:34;17.63;;;11.30;;
5333;SDS011;2689;50.954;7.116;2022-11-20T04:49:03;15.53;;;10.33;;
5333;SDS011;2689;50.954;7.116;2022-11-20T04:51:30;15.63;;;11.50;;
5333;SDS011;2689;50.954;7.116;2022-11-20T04:53:59;18.50;;;11.97;;
5333;SDS011;2689;50.954;7.116;2022-11-20T04:56:26;15.20;;;11.30;;
5333;SDS011;2689;50.954;7.116;2022-11-20T04:58:54;13.93;;;10.97;;
5333;SDS011;2689;50.954;7.116;2022-11-20T05:01:21;14.30;;;11.23;;
5333;SDS011;2689;50.954;7.116;2022-11-20T05:04:01;15.60;;;11.03;;
5333;SDS011;2689;50.954;7.116;2022-11-20T05:06:30;17.60;;;12.77;;
5333;SDS011;2689;50.954;7.116;2022-11-20T05:08:57;15.27;;;11.33;;
5333;SDS011;2689;50.954;7.116;2022-11-20T05:11:25;15.70;;;12.10;;
5333;SDS011;2689;50.954;7.116;2022-11-20T05:13:58;16.13;;;12.00;;
5333;SDS011;2689;50.954;7.116;2022-11-20T05:16:27;17.17;;;12.47;;
5333;SDS011;2689;50.954;7.116;2022-11-20T05:18:57;16.60;;;11.63;;
5333;SDS011;2689;50.954;7.116;2022-11-20T05:21:24;14.80;;;11.17;;
5333;SDS011;2689;50.954;7.116;2022-11-20T05:24:00;16.50;;;11.80;;
5333;SDS011;2689;50.954;7.116;2022-11-20T05:26:27;14.37;;;11.03;;
5333;SDS011;2689;50.954;7.116;2022-11-20T05:28:54;15.93;;;12.33;;
5333;SDS011;2689;50.954;7.116;2022-11-20T05:31:24;18.27;;;12.70;;
5333;SDS011;2689;50.954;7.116;2022-11-20T05:33:54;17.20;;;12.77;;
5333;SDS011;2689;50.954;7.116;2022-11-20T05:36:21;17.90;;;12.90;;
5333;SDS011;2689;50.954;7.116;2022-11-20T05:38:50;19.13;;;13.50;;
5333;SDS011;2689;50.954;7.116;2022-11-20T05:41:19;17.17;;;12.87;;
5333;SDS011;2689;50.954;7.116;2022-11-20T05:43:48;17.00;;;11.97;;
5333;SDS011;2689;50.954;7.116;2022-11-20T05:46:17;15.00;;;12.17;;
5333;SDS011;2689;50.954;7.116;2022-11-20T05:48:46;16.80;;;13.00;;
5333;SDS011;2689;50.954;7.116;2022-11-20T05:51:18;17.93;;;12.97;;
5333;SDS011;2689;50.954;7.116;2022-11-20T05:53:46;18.10;;;12.43;;
5333;SDS011;2689;50.954;7.116;2022-11-20T05:56:13;16.40;;;11.73;;
5333;SDS011;2689;50.954;7.116;2022-11-20T05:58:44;17.60;;;13.20;;
5333;SDS011;2689;50.954;7.116;2022-11-20T06:01:13;15.40;;;12.40;;
5333;SDS011;2689;50.954;7.116;2022-11-20T06:03:43;16.63;;;11.97;;
5333;SDS011;2689;50.954;7.116;2022-11-20T06:06:14;18.47;;;13.80;;
5333;SDS011;2689;50.954;7.116;2022-11-20T06:08:41;19.17;;;13.23;;
5333;SDS011;2689;50.954;7.116;2022-11-20T06:11:10;18.57;;;13.50;;
5333;SDS011;2689;50.954;7.116;2022-11-20T06:13:43;16.70;;;12.97;;
5333;SDS011;2689;50.954;7.116;2022-11-20T06:16:11;19.70;;;12.43;;
5333;SDS011;2689;50.954;7.116;2022-11-20T06:18:45;16.70;;;13.53;;
5333;SDS011;2689;50.954;7.116;2022-11-20T06:21:14;20.07;;;13.80;;
5333;SDS011;2689;50.954;7.116;2022-11-20T06:23:42;20.73;;;13.67;;
5333;SDS011;2689;50.954;7.116;2022-11-20T06:26:11;17.70;;;12.37;;
5333;SDS011;2689;50.954;7.116;2022-11-20T06:28:39;19.73;;;12.77;;
5333;SDS011;2689;50.954;7.116;2022-11-20T06:31:06;17.50;;;12.30;;
5333;SDS011;2689;50.954;7.116;2022-11-20T06:33:33;17.13;;;13.07;;
5333;SDS011;2689;50.954;7.116;2022-11-20T06:36:00;15.30;;;11.80;;
5333;SDS011;2689;50.954;7.116;2022-11-20T06:38:29;16.10;;;11.00;;
5333;SDS011;2689;50.954;7.116;2022-11-20T06:40:56;16.03;;;11.93;;
5333;SDS011;2689;50.954;7.116;2022-11-20T06:43:23;16.77;;;11.10;;
5333;SDS011;2689;50.954;7.116;2022-11-20T06:45:51;16.40;;;11.33;;
5333;SDS011;2689;50.954;7.116;2022-11-20T06:48:18;13.83;;;11.20;;
5333;SDS011;2689;50.954;7.116;2022-11-20T06:50:46;15.27;;;11.60;;
5333;SDS011;2689;50.954;7.116;2022-11-20T06:53:12;14.40;;;11.17;;
5333;SDS011;2689;50.954;7.116;2022-11-20T06:55:42;16.17;;;12.77;;
5333;SDS011;2689;50.954;7.116;2022-11-20T06:58:10;17.60;;;12.00;;
5333;SDS011;2689;50.954;7.116;2022-11-20T07:00:37;16.60;;;12.57;;
5333;SDS011;2689;50.954;7.116;2022-11-20T07:03:04;19.30;;;12.00;;
5333;SDS011;2689;50.954;7.116;2022-11-20T07:05:31;16.00;;;12.17;;
5333;SDS011;2689;50.954;7.116;2022-11-20T07:07:58;16.53;;;12.50;;
5333;SDS011;2689;50.954;7.116;2022-11-20T07:10:25;17.13;;;12.60;;
5333;SDS011;2689;50.954;7.116;2022-11-20T07:12:54;16.27;;;12.27;;
5333;SDS011;2689;50.954;7.116;2022-11-20T07:15:21;15.73;;;11.70;;
5333;SDS011;2689;50.954;7.116;2022-11-20T07:17:49;19.07;;;13.27;;
5333;SDS011;2689;50.954;7.116;2022-11-20T07:20:16;14.60;;;11.80;;
5333;SDS011;2689;50.954;7.116;2022-11-20T07:22:43;19.73;;;13.37;;
5333;SDS011;2689;50.954;7.116;2022-11-20T07:25:10;18.70;;;11.97;;
5333;SDS011;2689;50.954;7.116;2022-11-20T07:27:37;19.40;;;12.90;;
5333;SDS011;2689;50.954;7.116;2022-11-20T07:30:06;16.87;;;13.67;;
5333;SDS011;2689;50.954;7.116;2022-11-20T07:32:33;16.73;;;12.50;;
5333;SDS011;2689;50.954;7.116;2022-11-20T07:35:00;19.63;;;13.30;;
5333;SDS011;2689;50.954;7.116;2022-11-20T07:37:26;19.07;;;12.67;;
5333;SDS011;2689;50.954;7.116;2022-11-20T07:39:53;19.30;;;13.17;;
5333;SDS011;2689;50.954;7.116;2022-11-20T07:42:20;17.97;;;13.20;;
5333;SDS011;2689;50.954;7.116;2022-11-20T07:44:47;20.00;;;13.90;;
5333;SDS011;2689;50.954;7.116;2022-11-20T07:47:15;17.23;;;12.53;;
5333;SDS011;2689;50.954;7.116;2022-11-20T07:49:41;20.50;;;12.77;;
5333;SDS011;2689;50.954;7.116;2022-11-20T07:52:08;18.43;;;13.53;;
5333;SDS011;2689;50.954;7.116;2022-11-20T07:54:35;18.90;;;13.60;;
5333;SDS011;2689;50.954;7.116;2022-11-20T07:57:02;17.53;;;13.40;;
5333;SDS011;2689;50.954;7.116;2022-11-20T07:59:29;16.90;;;12.53;;
5333;SDS011;2689;50.954;7.116;2022-11-20T08:01:56;17.03;;;13.00;;
5333;SDS011;2689;50.954;7.116;2022-11-20T08:04:24;22.53;;;14.37;;
5333;SDS011;2689;50.954;7.116;2022-11-20T08:06:51;17.77;;;12.83;;
5333;SDS011;2689;50.954;7.116;2022-11-20T08:09:18;21.27;;;14.87;;
5333;SDS011;2689;50.954;7.116;2022-11-20T08:11:45;18.50;;;13.40;;
5333;SDS011;2689;50.954;7.116;2022-11-20T08:14:30;23.80;;;15.30;;
5333;SDS011;2689;50.954;7.116;2022-11-20T08:16:57;21.40;;;14.53;;
5333;SDS011;2689;50.954;7.116;2022-11-20T08:19:25;22.33;;;16.30;;
5333;SDS011;2689;50.954;7.116;2022-11-20T08:21:52;20.73;;;14.33;;
5333;SDS011;2689;50.954;7.116;2022-11-20T08:24:25;22.53;;;14.87;;
5333;SDS011;2689;50.954;7.116;2022-11-20T08:26:52;21.07;;;14.00;;
5333;SDS011;2689;50.954;7.116;2022-11-20T08:29:19;18.20;;;13.60;;
5333;SDS011;2689;50.954;7.116;2022-11-20T08:31:45;19.13;;;13.50;;
5333;SDS011;2689;50.954;7.116;2022-11-20T08:34:12;19.17;;;13.93;;
5333;SDS011;2689;50.954;7.116;2022-11-20T08:36:40;17.37;;;12.70;;
5333;SDS011;2689;50.954;7.116;2022-11-20T08:39:07;22.30;;;13.97;;
5333;SDS011;2689;50.954;7.116;2022-11-20T08:41:37;19.33;;;14.23;;
5333;SDS011;2689;50.954;7.116;2022-11-20T08:44:06;15.90;;;11.63;;
5333;SDS011;2689;50.954;7.116;2022-11-20T08:46:34;19.10;;;13.07;;
5333;SDS011;2689;50.954;7.116;2022-11-20T08:49:02;15.93;;;11.80;;
5333;SDS011;2689;50.954;7.116;2022-11-20T08:51:29;15.70;;;11.90;;
5333;SDS011;2689;50.954;7.116;2022-11-20T08:53:58;17.07;;;12.43;;
5333;SDS011;2689;50.954;7.116;2022-11-20T08:56:25;15.90;;;12.20;;
5333;SDS011;2689;50.954;7.116;2022-11-20T08:58:52;20.87;;;15.00;;
5333;SDS011;2689;50.954;7.116;2022-11-20T09:01:20;25.20;;;12.60;;
5333;SDS011;2689;50.954;7.116;2022-11-20T09:03:48;20.97;;;13.77;;
5333;SDS011;2689;50.954;7.116;2022-11-20T09:06:15;19.40;;;13.20;;
5333;SDS011;2689;50.954;7.116;2022-11-20T09:08:42;17.17;;;13.03;;
5333;SDS011;2689;50.954;7.116;2022-11-20T09:11:11;17.70;;;13.70;;
5333;SDS011;2689;50.954;7.116;2022-11-20T09:13:37;19.50;;;13.47;;
5333;SDS011;2689;50.954;7.116;2022-11-20T09:16:05;19.17;;;13.80;;
5333;SDS011;2689;50.954;7.116;2022-11-20T09:18:33;17.40;;;12.60;;
5333;SDS011;2689;50.954;7.116;2022-11-20T09:21:02;16.17;;;11.83;;
5333;SDS011;2689;50.954;7.116;2022-11-20T09:23:32;21.87;;;14.07;;
5333;SDS011;2689;50.954;7.116;2022-11-20T09:26:03;23.77;;;13.27;;
5333;SDS011;2689;50.954;7.116;2022-11-20T09:28:33;16.60;;;13.20;;
5333;SDS011;2689;50.954;7.116;2022-11-20T09:30:59;20.47;;;14.03;;
5333;SDS011;2689;50.954;7.116;2022-11-20T09:33:26;20.60;;;14.53;;
5333;SDS011;2689;50.954;7.116;2022-11-20T09:35:53;21.60;;;14.00;;
5333;SDS011;2689;50.954;7.116;2022-11-20T09:38:20;18.20;;;13.10;;
5333;SDS011;2689;50.954;7.116;2022-11-20T09:40:49;18.90;;;13.70;;
5333;SDS011;2689;50.954;7.116;2022-11-20T09:43:21;17.90;;;12.33;;
5333;SDS011;2689;50.954;7.116;2022-11-20T09:45:58;19.73;;;13.80;;
5333;SDS011;2689;50.954;7.116;2022-11-20T09:51:32;19.20;;;13.00;;
5333;SDS011;2689;50.954;7.116;2022-11-20T09:54:13;15.93;;;12.17;;
5333;SDS011;2689;50.954;7.116;2022-11-20T09:56:42;20.20;;;12.77;;
5333;SDS011;2689;50.954;7.116;2022-11-20T09:59:15;15.40;;;11.40;;
5333;SDS011;2689;50.954;7.116;2022-11-20T10:02:01;14.17;;;10.93;;
5333;SDS011;2689;50.954;7.116;2022-11-20T10:04:43;13.30;;;9.70;;
5333;SDS011;2689;50.954;7.116;2022-11-20T10:07:15;12.23;;;9.13;;
5333;SDS011;2689;50.954;7.116;2022-11-20T10:09:49;15.13;;;9.53;;
5333;SDS011;2689;50.954;7.116;2022-11-20T10:12:19;11.30;;;9.00;;
5333;SDS011;2689;50.954;7.116;2022-11-20T10:15:01;17.20;;;10.90;;
5333;SDS011;2689;50.954;7.116;2022-11-20T10:17:51;13.63;;;10.10;;
5333;SDS011;2689;50.954;7.116;2022-11-20T10:20:29;16.40;;;12.33;;
5333;SDS011;2689;50.954;7.116;2022-11-20T10:23:11;17.30;;;12.40;;
5333;SDS011;2689;50.954;7.116;2022-11-20T10:25:54;17.03;;;12.20;;
5333;SDS011;2689;50.954;7.116;2022-11-20T10:31:17;18.50;;;12.70;;
5333;SDS011;2689;50.954;7.116;2022-11-20T10:33:54;17.20;;;11.67;;
5333;SDS011;2689;50.954;7.116;2022-11-20T10:36:24;20.20;;;13.50;;
5333;SDS011;2689;50.954;7.116;2022-11-20T10:38:56;17.43;;;13.07;;
5333;SDS011;2689;50.954;7.116;2022-11-20T10:41:27;21.03;;;14.00;;
5333;SDS011;2689;50.954;7.116;2022-11-20T10:44:01;19.83;;;13.63;;
5333;SDS011;2689;50.954;7.116;2022-11-20T10:46:34;24.30;;;14.93;;
5333;SDS011;2689;50.954;7.116;2022-11-20T10:49:10;20.03;;;12.47;;
5333;SDS011;2689;50.954;7.116;2022-11-20T10:51:40;21.23;;;14.50;;
5333;SDS011;2689;50.954;7.116;2022-11-20T10:54:18;18.47;;;13.80;;
5333;SDS011;2689;50.954;7.116;2022-11-20T10:56:51;21.00;;;14.90;;
5333;SDS011;2689;50.954;7.116;2022-11-20T10:59:38;19.53;;;13.63;;
5333;SDS011;2689;50.954;7.116;2022-11-20T11:02:15;22.17;;;14.90;;
5333;SDS011;2689;50.954;7.116;2022-11-20T11:04:45;20.57;;;14.13;;
5333;SDS011;2689;50.954;7.116;2022-11-20T11:07:14;20.70;;;14.80;;
5333;SDS011;2689;50.954;7.116;2022-11-20T11:09:44;29.10;;;17.50;;
5333;SDS011;2689;50.954;7.116;2022-11-20T11:12:14;19.93;;;13.63;;
5333;SDS011;2689;50.954;7.116;2022-11-20T11:14:42;20.57;;;15.90;;
5333;SDS011;2689;50.954;7.116;2022-11-20T11:17:18;20.00;;;14.80;;
5333;SDS011;2689;50.954;7.116;2022-11-20T11:20:07;22.90;;;16.10;;
5333;SDS011;2689;50.954;7.116;2022-11-20T11:22:43;22.30;;;14.93;;
5333;SDS011;2689;50.954;7.116;2022-11-20T11:25:19;21.97;;;13.60;;
5333;SDS011;2689;50.954;7.116;2022-11-20T11:27:48;20.83;;;15.40;;
5333;SDS011;2689;50.954;7.116;2022-11-20T11:30:17;23.10;;;16.50;;
5333;SDS011;2689;50.954;7.116;2022-11-20T11:32:46;21.17;;;13.80;;
5333;SDS011;2689;50.954;7.116;2022-11-20T11:35:22;19.70;;;14.67;;
5333;SDS011;2689;50.954;7.116;2022-11-20T11:37:51;20.67;;;13.83;;
5333;SDS011;2689;50.954;7.116;2022-11-20T11:40:20;23.13;;;14.60;;
5333;SDS011;2689;50.954;7.116;2022-11-20T11:42:57;17.97;;;13.80;;
5333;SDS011;2689;50.954;7.116;2022-11-20T11:45:28;20.10;;;14.00;;
5333;SDS011;2689;50.954;7.116;2022-11-20T11:47:55;32.20;;;16.63;;
5333;SDS011;2689;50.954;7.116;2022-11-20T11:50:25;20.90;;;13.97;;
5333;SDS011;2689;50.954;7.116;2022-11-20T11:52:56;20.80;;;15.33;;
5333;SDS011;2689;50.954;7.116;2022-11-20T11:55:30;18.97;;;13.63;;
5333;SDS011;2689;50.954;7.116;2022-11-20T11:58:09;21.13;;;15.03;;
5333;SDS011;2689;50.954;7.116;2022-11-20T12:00:54;19.37;;;14.67;;
5333;SDS011;2689;50.954;7.116;2022-11-20T12:03:24;20.20;;;13.80;;
5333;SDS011;2689;50.954;7.116;2022-11-20T12:05:57;20.03;;;13.00;;
5333;SDS011;2689;50.954;7.116;2022-11-20T12:08:29;20.63;;;14.77;;
5333;SDS011;2689;50.954;7.116;2022-11-20T12:11:00;21.03;;;15.07;;
5333;SDS011;2689;50.954;7.116;2022-11-20T12:13:35;24.23;;;15.47;;
5333;SDS011;2689;50.954;7.116;2022-11-20T12:16:10;22.20;;;15.30;;
5333;SDS011;2689;50.954;7.116;2022-11-20T12:21:36;21.30;;;14.80;;
5333;SDS011;2689;50.954;7.116;2022-11-20T12:24:20;22.27;;;14.27;;
5333;SDS011;2689;50.954;7.116;2022-11-20T12:27:00;20.83;;;14.07;;
5333;SDS011;2689;50.954;7.116;2022-11-20T12:29:38;20.00;;;13.20;;
5333;SDS011;2689;50.954;7.116;2022-11-20T12:32:22;18.53;;;13.07;;
5333;SDS011;2689;50.954;7.116;2022-11-20T12:35:12;19.27;;;12.50;;
5333;SDS011;2689;50.954;7.116;2022-11-20T12:37:54;23.00;;;13.43;;
5333;SDS011;2689;50.954;7.116;2022-11-20T12:40:35;22.70;;;14.70;;
5333;SDS011;2689;50.954;7.116;2022-11-20T12:43:13;22.77;;;15.90;;
5333;SDS011;2689;50.954;7.116;2022-11-20T12:46:13;29.83;;;17.37;;
5333;SDS011;2689;50.954;7.116;2022-11-20T12:49:02;37.40;;;22.30;;
5333;SDS011;2689;50.954;7.116;2022-11-20T12:51:47;22.77;;;14.60;;
5333;SDS011;2689;50.954;7.116;2022-11-20T12:54:34;19.80;;;15.40;;
5333;SDS011;2689;50.954;7.116;2022-11-20T12:57:15;22.17;;;15.37;;
5333;SDS011;2689;50.954;7.116;2022-11-20T13:02:41;18.90;;;12.20;;
5333;SDS011;2689;50.954;7.116;2022-11-20T13:05:23;18.43;;;12.23;;
5333;SDS011;2689;50.954;7.116;2022-11-20T13:07:57;18.77;;;13.67;;
5333;SDS011;2689;50.954;7.116;2022-11-20T13:10:30;21.03;;;15.00;;
5333;SDS011;2689;50.954;7.116;2022-11-20T13:13:03;25.60;;;14.70;;
5333;SDS011;2689;50.954;7.116;2022-11-20T13:15:44;19.70;;;13.10;;
5333;SDS011;2689;50.954;7.116;2022-11-20T13:18:18;22.77;;;14.80;;
5333;SDS011;2689;50.954;7.116;2022-11-20T13:20:47;27.80;;;17.70;;
5333;SDS011;2689;50.954;7.116;2022-11-20T13:23:29;29.57;;;17.70;;
5333;SDS011;2689;50.954;7.116;2022-11-20T13:26:06;27.27;;;15.13;;
5333;SDS011;2689;50.954;7.116;2022-11-20T13:28:41;21.03;;;14.37;;
5333;SDS011;2689;50.954;7.116;2022-11-20T13:31:09;26.13;;;16.70;;
5333;SDS011;2689;50.954;7.116;2022-11-20T13:33:50;21.80;;;13.90;;
5333;SDS011;2689;50.954;7.116;2022-11-20T13:36:26;18.90;;;13.13;;
5333;SDS011;2689;50.954;7.116;2022-11-20T13:38:57;18.87;;;12.70;;
5333;SDS011;2689;50.954;7.116;2022-11-20T13:41:27;30.83;;;19.97;;
5333;SDS011;2689;50.954;7.116;2022-11-20T13:43:58;18.47;;;12.87;;
5333;SDS011;2689;50.954;7.116;2022-11-20T13:46:37;19.33;;;13.90;;
5333;SDS011;2689;50.954;7.116;2022-11-20T13:49:08;35.23;;;18.00;;
5333;SDS011;2689;50.954;7.116;2022-11-20T13:51:39;30.40;;;17.93;;
5333;SDS011;2689;50.954;7.116;2022-11-20T13:54:22;19.87;;;14.00;;
5333;SDS011;2689;50.954;7.116;2022-11-20T14:00:09;18.43;;;12.57;;
5333;SDS011;2689;50.954;7.116;2022-11-20T14:02:39;16.83;;;12.30;;
5333;SDS011;2689;50.954;7.116;2022-11-20T14:05:15;17.30;;;12.20;;
5333;SDS011;2689;50.954;7.116;2022-11-20T14:07:46;18.47;;;12.77;;
5333;SDS011;2689;50.954;7.116;2022-11-20T14:10:21;17.90;;;12.77;;
5333;SDS011;2689;50.954;7.116;2022-11-20T14:12:51;19.17;;;12.40;;
5333;SDS011;2689;50.954;7.116;2022-11-20T14:15:25;17.73;;;12.90;;
5333;SDS011;2689;50.954;7.116;2022-11-20T14:18:10;19.83;;;13.27;;
5333;SDS011;2689;50.954;7.116;2022-11-20T14:20:38;14.57;;;10.47;;
5333;SDS011;2689;50.954;7.116;2022-11-20T14:23:09;20.70;;;12.40;;
5333;SDS011;2689;50.954;7.116;2022-11-20T14:25:36;18.37;;;13.17;;
5333;SDS011;2689;50.954;7.116;2022-11-20T14:28:11;19.77;;;11.87;;
5333;SDS011;2689;50.954;7.116;2022-11-20T14:30:49;17.90;;;12.50;;
5333;SDS011;2689;50.954;7.116;2022-11-20T14:33:16;17.23;;;12.43;;
5333;SDS011;2689;50.954;7.116;2022-11-20T14:35:45;19.07;;;13.03;;
5333;SDS011;2689;50.954;7.116;2022-11-20T14:38:14;16.30;;;11.47;;
5333;SDS011;2689;50.954;7.116;2022-11-20T14:40:50;17.23;;;12.67;;
5333;SDS011;2689;50.954;7.116;2022-11-20T14:43:31;16.83;;;12.10;;
5333;SDS011;2689;50.954;7.116;2022-11-20T14:45:58;20.00;;;12.90;;
5333;SDS011;2689;50.954;7.116;2022-11-20T14:48:51;18.07;;;13.27;;
5333;SDS011;2689;50.954;7.116;2022-11-20T14:51:43;19.83;;;12.60;;
5333;SDS011;2689;50.954;7.116;2022-11-20T14:54:12;24.23;;;13.53;;
5333;SDS011;2689;50.954;7.116;2022-11-20T14:56:41;16.30;;;12.33;;
5333;SDS011;2689;50.954;7.116;2022-11-20T14:59:34;19.17;;;12.70;;
5333;SDS011;2689;50.954;7.116;2022-11-20T15:04:57;21.63;;;13.43;;
5333;SDS011;2689;50.954;7.116;2022-11-20T15:07:28;15.20;;;11.23;;
5333;SDS011;2689;50.954;7.116;2022-11-20T15:09:59;18.63;;;12.07;;
5333;SDS011;2689;50.954;7.116;2022-11-20T15:12:31;18.53;;;13.27;;
5333;SDS011;2689;50.954;7.116;2022-11-20T15:15:08;18.10;;;13.87;;
5333;SDS011;2689;50.954;7.116;2022-11-20T15:17:46;17.27;;;11.33;;
5333;SDS011;2689;50.954;7.116;2022-11-20T15:20:28;16.53;;;11.67;;
5333;SDS011;2689;50.954;7.116;2022-11-20T15:22:58;22.57;;;14.10;;
5333;SDS011;2689;50.954;7.116;2022-11-20T15:25:25;16.37;;;11.90;;
5333;SDS011;2689;50.954;7.116;2022-11-20T15:27:59;21.43;;;13.30;;
5333;SDS011;2689;50.954;7.116;2022-11-20T15:30:46;20.53;;;13.90;;